Powhatand, Virginia
Current Conditions -  °F | °C
As of 12:55 PM on Friday 21 Nov 2014 (Local Time) from KFCI Reporting Station
Clear Clear  
Wind Chill: 36°   Ceiling: Unl
Heat Index: 41°   Visibility: 10mi
Dew Point:   Wind: 7mph
Humidity: 26%   Direction: 320°NW
Pressure: 30.46"   Gusts: 17mph
Location:  37.5492°N, 77.935°W
Report Text: KFCI 211755Z AUTO 32006G15KT 10SM CLR 05/M13 A3046 RMK AO1 10060 21060 52007
Loading
Personal Weather Stations






























Interactive Weather Map New forecast layout! Learn more

10-Day Weather Forecast

Advertisements
Track Severe Weather on mobile